Time;durP1;ratioP1;P1;durP2;ratioP2;P2;SDS_P1;SDS_P2;PMS_P1;PMS_P2;Temp;Humidity;BMP_temperature;BMP_pressure;BME280_temperature;BME280_humidity;BME280_pressure;Samples;Min_cycle;Max_cycle;Signal;HPM_P1;HPM_P2
2022/04/11 00:00:49;;;;;;;5.00;4.57;;;;;;;-1.01;100.00;96836.50;5092033;28;20468;-75
2022/04/11 00:03:15;;;;;;;5.90;5.13;;;;;;;-1.02;100.00;96832.34;5092257;28;20972;-75
2022/04/11 00:05:42;;;;;;;11.30;5.40;;;;;;;-0.99;100.00;96831.06;5093695;28;20519;-74
2022/04/11 00:08:09;;;;;;;5.67;4.90;;;;;;;-0.97;100.00;96826.41;5064661;28;20968;-75
2022/04/11 00:10:36;;;;;;;5.50;4.73;;;;;;;-1.16;100.00;96781.03;5091185;28;20420;-75
2022/04/11 00:13:05;;;;;;;9.77;6.03;;;;;;;-0.87;100.00;96831.75;5075449;28;20818;-75
2022/04/11 00:15:38;;;;;;;5.80;4.80;;;;;;;-1.12;100.00;96806.25;5071662;28;20876;-75
2022/04/11 00:18:05;;;;;;;6.60;4.50;;;;;;;-0.99;100.00;96818.09;5084596;28;20428;-76
2022/04/11 00:20:32;;;;;;;6.93;5.20;;;;;;;-1.22;100.00;96821.66;5075037;28;20828;-74
2022/04/11 00:22:59;;;;;;;8.27;5.40;;;;;;;-1.66;100.00;96781.88;5092349;28;20436;-75
2022/04/11 00:25:26;;;;;;;5.87;5.23;;;;;;;-1.56;100.00;96785.41;5092245;28;20913;-74
2022/04/11 00:27:53;;;;;;;5.63;4.60;;;;;;;-1.58;100.00;96777.09;5092066;28;20492;-75
2022/04/11 00:30:19;;;;;;;8.40;5.00;;;;;;;-1.33;100.00;96805.19;5091806;28;20460;-74
2022/04/11 00:32:47;;;;;;;8.57;5.37;;;;;;;-1.53;100.00;96774.56;5091960;28;20559;-74
2022/04/11 00:35:14;;;;;;;5.90;3.90;;;;;;;-1.39;100.00;96800.16;5078160;28;20432;-74
2022/04/11 00:37:41;;;;;;;5.13;4.40;;;;;;;-1.24;100.00;96823.72;5074971;28;20457;-75
2022/04/11 00:40:09;;;;;;;6.77;5.50;;;;;;;-1.13;100.00;96798.69;5091807;28;20437;-75
2022/04/11 00:42:37;;;;;;;9.40;5.50;;;;;;;-1.07;100.00;96819.31;5092816;28;20465;-74
2022/04/11 00:45:05;;;;;;;5.20;4.70;;;;;;;-1.24;100.00;96815.94;5091664;28;20490;-74
2022/04/11 00:47:32;;;;;;;5.40;4.33;;;;;;;-1.30;100.00;96822.88;5075429;28;20514;-74
2022/04/11 00:50:04;;;;;;;6.30;4.80;;;;;;;-1.21;100.00;96820.63;5075901;28;20468;-74
2022/04/11 00:52:34;;;;;;;6.20;5.63;;;;;;;-1.56;100.00;96772.47;5093050;28;20500;-74
2022/04/11 00:55:02;;;;;;;6.30;4.37;;;;;;;-1.47;100.00;96796.16;5092946;28;20443;-74
2022/04/11 00:57:29;;;;;;;6.67;3.90;;;;;;;-1.33;100.00;96812.19;5093021;28;20456;-74
2022/04/11 00:59:56;;;;;;;6.57;5.13;;;;;;;-1.42;100.00;96803.25;5092856;28;20490;-74
2022/04/11 01:02:23;;;;;;;5.87;4.47;;;;;;;-1.87;100.00;96739.31;5076863;28;20440;-74
2022/04/11 01:04:50;;;;;;;5.53;3.63;;;;;;;-1.39;100.00;96821.69;5093636;28;20451;-74
2022/04/11 01:07:19;;;;;;;4.60;3.40;;;;;;;-1.64;100.00;96785.81;5093795;28;20469;-74
2022/04/11 01:09:46;;;;;;;4.83;4.13;;;;;;;-1.53;100.00;96800.50;5082976;28;20455;-74
2022/04/11 01:12:15;;;;;;;4.23;3.63;;;;;;;-1.39;100.00;96811.31;5088510;28;20470;-74
2022/04/11 01:14:42;;;;;;;9.30;4.10;;;;;;;-1.43;100.00;96799.88;5100684;28;20522;-74
2022/04/11 01:17:10;;;;;;;4.60;4.00;;;;;;;-1.34;100.00;96813.19;5098933;28;20500;-74
2022/04/11 01:19:37;;;;;;;6.47;3.90;;;;;;;-1.45;100.00;96814.88;5079600;28;20437;-74
2022/04/11 01:22:04;;;;;;;5.53;4.10;;;;;;;-1.57;100.00;96788.25;5093781;28;20478;-74
2022/04/11 01:24:32;;;;;;;6.80;4.10;;;;;;;-1.31;100.00;96812.75;5093633;28;20507;-74
2022/04/11 01:26:59;;;;;;;9.13;4.27;;;;;;;-1.49;100.00;96788.63;5093641;28;20465;-74
2022/04/11 01:29:27;;;;;;;3.80;3.10;;;;;;;-1.40;100.00;96807.16;5092534;28;21326;-74
2022/04/11 01:31:55;;;;;;;4.40;4.00;;;;;;;-1.43;100.00;96788.72;5090633;28;20445;-74
2022/04/11 01:34:22;;;;;;;6.23;3.80;;;;;;;-1.33;100.00;96812.97;5090686;28;21058;-74
2022/04/11 01:36:49;;;;;;;5.70;3.77;;;;;;;-1.48;100.00;96803.16;5091900;28;20449;-74
2022/04/11 01:39:15;;;;;;;5.00;4.53;;;;;;;-1.51;100.00;96795.84;5090878;28;20527;-74
2022/04/11 01:41:42;;;;;;;4.90;4.50;;;;;;;-1.64;100.00;96756.50;5091721;28;20433;-73
2022/04/11 01:44:09;;;;;;;4.33;3.77;;;;;;;-1.52;100.00;96796.88;5070159;28;20455;-74
2022/04/11 01:46:35;;;;;;;4.47;4.10;;;;;;;-1.39;100.00;96810.53;5076738;28;20495;-74
2022/04/11 01:49:12;;;;;;;4.50;4.10;;;;;;;-1.28;100.00;96810.44;5075286;28;20474;-73
2022/04/11 01:51:39;;;;;;;5.33;4.13;;;;;;;-1.33;100.00;96799.22;5070011;28;20445;-74
2022/04/11 01:54:06;;;;;;;6.77;3.97;;;;;;;-1.56;100.00;96782.03;5072168;28;20444;-74
2022/04/11 01:56:33;;;;;;;5.23;4.73;;;;;;;-1.81;100.00;96788.41;5090015;28;20540;-74
2022/04/11 01:58:59;;;;;;;5.50;4.40;;;;;;;-1.88;100.00;96805.91;5073478;28;20437;-73
2022/04/11 02:01:26;;;;;;;7.87;5.60;;;;;;;-1.82;100.00;96804.97;5090453;28;20450;-73
2022/04/11 02:03:53;;;;;;;5.20;4.83;;;;;;;-1.94;100.00;96804.25;5091667;28;20439;-73
2022/04/11 02:06:20;;;;;;;4.07;3.10;;;;;;;-2.41;100.00;96763.06;5070187;28;20584;-73
2022/04/11 02:08:47;;;;;;;9.53;4.00;;;;;;;-2.48;100.00;96779.78;5073466;28;20464;-74
2022/04/11 02:11:15;;;;;;;5.90;4.10;;;;;;;-2.14;100.00;96812.50;5073642;28;20437;-74
2022/04/11 02:13:42;;;;;;;4.57;3.83;;;;;;;-2.26;100.00;96785.88;5090035;28;21005;-74
2022/04/11 02:16:10;;;;;;;5.33;3.90;;;;;;;-2.16;100.00;96804.16;5090243;28;20497;-73
2022/04/11 02:18:36;;;;;;;5.20;3.30;;;;;;;-2.17;100.00;96800.00;5089778;28;20794;-74
2022/04/11 02:21:03;;;;;;;6.37;3.50;;;;;;;-2.14;100.00;96793.56;5089938;28;20937;-74
2022/04/11 02:23:30;;;;;;;3.43;3.23;;;;;;;-2.04;100.00;96809.28;5073563;28;20527;-73
2022/04/11 02:25:56;;;;;;;4.37;3.97;;;;;;;-2.36;100.00;96779.72;5089724;28;20806;-74
2022/04/11 02:28:24;;;;;;;4.33;3.40;;;;;;;-2.14;100.00;96809.91;5089483;28;20442;-74
2022/04/11 02:30:51;;;;;;;8.70;5.13;;;;;;;-2.08;100.00;96811.53;5073217;28;20461;-73
2022/04/11 02:33:18;;;;;;;7.30;4.50;;;;;;;-2.23;100.00;96782.81;5072611;28;20532;-73
2022/04/11 02:35:45;;;;;;;5.07;4.30;;;;;;;-2.09;100.00;96809.19;5089178;28;20443;-73
2022/04/11 02:38:13;;;;;;;5.60;4.40;;;;;;;-2.37;100.00;96747.88;5091981;28;20467;-73
2022/04/11 02:40:41;;;;;;;6.50;4.70;;;;;;;-2.00;100.00;96807.00;5093243;28;20436;-73
2022/04/11 02:43:12;;;;;;;4.37;3.97;;;;;;;-2.25;100.00;96791.81;5093079;28;20446;-73
2022/04/11 02:45:46;;;;;;;8.93;4.80;;;;;;;-2.26;100.00;96805.78;5093150;28;20431;-73
2022/04/11 02:48:17;;;;;;;4.57;4.07;;;;;;;-2.42;100.00;96804.72;5077045;28;20436;-73
2022/04/11 02:50:53;;;;;;;8.07;4.40;;;;;;;-2.62;100.00;96776.69;5092888;28;20510;-73
2022/04/11 02:53:25;;;;;;;6.03;5.43;;;;;;;-2.70;100.00;96758.91;5093212;28;20445;-73
2022/04/11 02:55:52;;;;;;;7.60;4.87;;;;;;;-2.54;100.00;96788.44;5092750;28;20844;-73
2022/04/11 02:58:19;;;;;;;7.00;5.83;;;;;;;-2.63;100.00;96787.25;5076095;28;20809;-73
2022/04/11 03:00:45;;;;;;;5.87;4.93;;;;;;;-2.52;100.00;96800.16;5093096;28;20504;-73
2022/04/11 03:03:12;;;;;;;9.47;5.60;;;;;;;-2.60;100.00;96769.47;5092847;28;20967;-73
2022/04/11 03:05:41;;;;;;;7.60;5.40;;;;;;;-2.65;100.00;96759.03;5076254;28;20530;-73
2022/04/11 03:08:09;;;;;;;5.57;5.03;;;;;;;-2.72;100.00;96782.44;5065250;28;20437;-73
2022/04/11 03:10:38;;;;;;;7.27;4.70;;;;;;;-2.78;100.00;96761.88;5090322;28;20480;-74
2022/04/11 03:13:06;;;;;;;5.90;4.00;;;;;;;-2.50;100.00;96785.19;5092540;28;20455;-74
2022/04/11 03:15:34;;;;;;;5.60;4.73;;;;;;;-2.52;100.00;96787.22;5093187;28;20436;-74
2022/04/11 03:18:01;;;;;;;7.40;5.67;;;;;;;-2.83;100.00;96765.16;5092688;28;20448;-74
2022/04/11 03:20:29;;;;;;;7.27;5.60;;;;;;;-3.22;100.00;96711.63;5072251;28;20437;-74
2022/04/11 03:22:58;;;;;;;6.17;5.33;;;;;;;-2.90;100.00;96790.38;5076299;28;20443;-74
2022/04/11 03:25:27;;;;;;;6.87;4.93;;;;;;;-3.01;100.00;96768.69;5093024;28;21047;-74
2022/04/11 03:27:53;;;;;;;6.10;5.50;;;;;;;-3.01;100.00;96744.63;5092282;28;20975;-74
2022/04/11 03:30:26;;;;;;;9.50;5.20;;;;;;;-2.62;100.00;96781.06;5078913;28;20531;-74
2022/04/11 03:32:53;;;;;;;8.17;5.17;;;;;;;-2.86;100.00;96751.88;5092247;28;20479;-74
2022/04/11 03:35:21;;;;;;;8.43;5.90;;;;;;;-3.20;100.00;96681.97;5092152;28;20452;-74
2022/04/11 03:37:48;;;;;;;8.33;5.10;;;;;;;-2.89;100.00;96749.78;5093337;28;20475;-74
2022/04/11 03:40:19;;;;;;;5.67;4.87;;;;;;;-2.72;100.00;96763.53;5076183;28;20436;-74
2022/04/11 03:42:47;;;;;;;10.60;6.10;;;;;;;-2.66;100.00;96775.56;5092011;28;20863;-74
2022/04/11 03:45:14;;;;;;;6.53;5.40;;;;;;;-2.73;100.00;96777.50;5075361;28;20529;-74
2022/04/11 03:47:43;;;;;;;7.57;5.27;;;;;;;-3.00;100.00;96736.63;5091812;28;20468;-74
2022/04/11 03:50:12;;;;;;;6.70;5.43;;;;;;;-2.83;100.00;96759.19;5090794;28;20550;-74
2022/04/11 03:52:41;;;;;;;7.80;4.90;;;;;;;-2.76;100.00;96752.09;5075452;28;20851;-74
2022/04/11 03:55:09;;;;;;;9.10;5.77;;;;;;;-2.82;100.00;96746.03;5075213;28;20528;-74
2022/04/11 03:57:41;;;;;;;6.20;5.17;;;;;;;-2.57;100.00;96770.78;5093095;28;20444;-74
2022/04/11 04:00:08;;;;;;;5.83;5.33;;;;;;;-2.58;100.00;96769.22;5075101;28;20449;-74
2022/04/11 04:03:03;;;;;;;5.90;5.13;;;;;;;-2.63;100.00;96743.28;5071863;28;20786;-74
2022/04/11 04:05:30;;;;;;;5.77;5.00;;;;;;;-2.44;100.00;96775.69;5087193;28;20439;-74
2022/04/11 04:07:58;;;;;;;5.80;5.30;;;;;;;-2.57;100.00;96755.25;5074865;28;20471;-74
2022/04/11 04:10:26;;;;;;;7.20;5.53;;;;;;;-2.67;100.00;96753.31;5091494;28;20444;-74
2022/04/11 04:13:00;;;;;;;11.93;5.37;;;;;;;-2.68;100.00;96756.88;5074823;28;20448;-74
2022/04/11 04:15:27;;;;;;;5.20;4.47;;;;;;;-2.53;100.00;96771.94;5091619;28;20787;-74
2022/04/11 04:17:55;;;;;;;10.73;6.33;;;;;;;-2.97;100.00;96730.22;5091405;28;20547;-73
2022/04/11 04:20:25;;;;;;;8.40;6.60;;;;;;;-2.75;100.00;96757.03;5091323;28;21037;-74
2022/04/11 04:22:54;;;;;;;8.60;5.80;;;;;;;-2.68;100.00;96751.69;5091352;28;20447;-74
2022/04/11 04:25:28;;;;;;;9.17;8.10;;;;;;;-2.65;100.00;96776.34;5091271;28;20546;-73
2022/04/11 04:27:54;;;;;;;19.10;13.80;;;;;;;-2.66;100.00;96754.88;5074624;28;20448;-74
2022/04/11 04:30:22;;;;;;;33.33;13.90;;;;;;;-2.70;100.00;96743.38;5078201;28;20951;-73
2022/04/11 04:32:48;;;;;;;18.20;11.97;;;;;;;-2.53;100.00;96758.97;5074626;28;20959;-74
2022/04/11 04:35:16;;;;;;;10.73;9.30;;;;;;;-2.55;100.00;96766.16;5074393;28;20432;-73
2022/04/11 04:37:46;;;;;;;11.50;6.97;;;;;;;-2.84;100.00;96773.91;5074797;28;20453;-73
2022/04/11 04:40:12;;;;;;;9.97;7.67;;;;;;;-2.97;100.00;96762.03;5074395;28;20443;-73
2022/04/11 04:42:43;;;;;;;11.07;7.10;;;;;;;-3.10;100.00;96735.66;5091469;28;20975;-74
2022/04/11 04:45:13;;;;;;;10.90;5.70;;;;;;;-2.87;100.00;96755.50;5090995;28;20436;-74
2022/04/11 04:48:01;;;;;;;11.80;4.77;;;;;;;-2.91;100.00;96764.75;5077463;28;20827;-73
2022/04/11 04:50:30;;;;;;;5.70;5.10;;;;;;;-2.92;100.00;96765.75;5090917;28;20461;-73
2022/04/11 04:52:57;;;;;;;8.10;4.70;;;;;;;-2.92;100.00;96745.06;5074102;28;20449;-74
2022/04/11 04:55:24;;;;;;;7.93;6.93;;;;;;;-2.68;100.00;96770.59;5090799;28;20845;-73
2022/04/11 04:57:50;;;;;;;10.53;6.27;;;;;;;-2.84;100.00;96727.34;5092010;28;20451;-74
2022/04/11 05:00:18;;;;;;;9.70;5.07;;;;;;;-2.68;100.00;96749.13;5073741;28;20508;-74
2022/04/11 05:02:46;;;;;;;9.90;5.37;;;;;;;-2.69;100.00;96748.34;5074172;28;20472;-73
2022/04/11 05:05:16;;;;;;;7.37;6.10;;;;;;;-2.50;100.00;96766.28;5090702;28;20455;-73
2022/04/11 05:07:44;;;;;;;7.23;5.87;;;;;;;-2.65;100.00;96742.72;5066565;28;20453;-73
2022/04/11 05:10:17;;;;;;;6.97;5.47;;;;;;;-2.26;100.00;96759.19;5085395;28;20473;-73
2022/04/11 05:12:47;;;;;;;11.80;7.40;;;;;;;-2.23;100.00;96772.44;5090392;28;20449;-73
2022/04/11 05:15:15;;;;;;;9.63;7.57;;;;;;;-2.30;100.00;96735.53;5090532;28;20435;-73
2022/04/11 05:17:46;;;;;;;6.73;6.10;;;;;;;-2.21;100.00;96751.50;5090328;28;20514;-74
2022/04/11 05:20:15;;;;;;;12.87;5.73;;;;;;;-2.06;100.00;96750.94;5090217;28;20445;-74
2022/04/11 05:22:41;;;;;;;8.97;8.07;;;;;;;-1.95;100.00;96745.69;5090379;28;20542;-74
2022/04/11 05:25:08;;;;;;;6.47;5.47;;;;;;;-2.01;100.00;96746.63;5090254;28;20459;-74
2022/04/11 05:27:36;;;;;;;11.23;5.73;;;;;;;-1.69;100.00;96759.03;5090234;28;20494;-74
2022/04/11 05:30:05;;;;;;;4.43;3.80;;;;;;;-1.61;100.00;96762.00;5073367;28;20554;-74
2022/04/11 05:32:34;;;;;;;8.03;4.53;;;;;;;-1.70;100.00;96732.34;5073618;28;20436;-74
2022/04/11 05:35:01;;;;;;;5.83;5.23;;;;;;;-1.43;100.00;96762.78;5090116;28;20432;-73
2022/04/11 05:37:29;;;;;;;6.07;5.00;;;;;;;-1.49;100.00;96754.13;5090101;28;20510;-74
2022/04/11 05:39:55;;;;;;;13.90;6.27;;;;;;;-1.45;100.00;96731.91;5089886;28;20471;-74
2022/04/11 05:42:24;;;;;;;5.47;4.97;;;;;;;-1.49;100.00;96710.84;5073668;28;21010;-74
2022/04/11 05:44:51;;;;;;;7.07;4.80;;;;;;;-1.23;100.00;96735.28;5088833;28;20471;-74
2022/04/11 05:47:18;;;;;;;5.97;5.33;;;;;;;-1.31;100.00;96694.22;5089980;28;20448;-74
2022/04/11 05:49:51;;;;;;;6.63;3.83;;;;;;;-0.70;100.00;96766.78;5074360;28;20527;-74
2022/04/11 05:52:18;;;;;;;6.90;4.53;;;;;;;-0.69;100.00;96763.94;5090095;28;20980;-74
2022/04/11 05:54:45;;;;;;;4.70;4.20;;;;;;;-0.90;100.00;96725.81;5090183;28;20574;-74
2022/04/11 05:57:13;;;;;;;6.63;4.20;;;;;;;-0.70;100.00;96756.41;5089832;28;20457;-74
2022/04/11 05:59:40;;;;;;;6.27;4.07;;;;;;;-0.78;100.00;96729.06;5073298;28;20428;-74
2022/04/11 06:02:11;;;;;;;7.10;5.40;;;;;;;-0.73;100.00;96757.66;5089970;28;20444;-74
2022/04/11 06:04:39;;;;;;;20.83;13.67;;;;;;;-0.69;100.00;96745.75;5070243;28;20455;-75
2022/04/11 06:07:07;;;;;;;24.03;13.73;;;;;;;-0.63;100.00;96726.63;5083760;28;20876;-75
2022/04/11 06:09:34;;;;;;;11.23;6.87;;;;;;;-0.37;100.00;96765.84;5090100;28;20447;-75
2022/04/11 06:12:01;;;;;;;7.20;6.50;;;;;;;-0.54;100.00;96728.78;5073958;28;21010;-76
2022/04/11 06:14:31;;;;;;;5.53;5.03;;;;;;;-0.39;100.00;96728.94;5094212;28;20450;-75
2022/04/11 06:16:58;;;;;;;4.73;4.33;;;;;;;-0.04;100.00;96773.41;5093864;28;20470;-75
2022/04/11 06:19:25;;;;;;;6.10;4.87;;;;;;;-0.07;100.00;96736.75;5093750;28;20463;-75
2022/04/11 06:21:52;;;;;;;7.67;4.37;;;;;;;0.03;100.00;96751.63;5076994;28;20466;-75
2022/04/11 06:24:20;;;;;;;6.07;5.27;;;;;;;0.17;100.00;96743.16;5093775;28;20636;-75
2022/04/11 06:26:46;;;;;;;9.00;4.97;;;;;;;0.43;100.00;96759.72;5076719;28;20992;-73
2022/04/11 06:29:14;;;;;;;5.60;5.00;;;;;;;0.49;100.00;96755.34;5093672;28;20436;-73
2022/04/11 06:31:41;;;;;;;5.43;4.57;;;;;;;0.63;100.00;96772.06;5093330;28;20562;-73
2022/04/11 06:34:19;;;;;;;6.20;5.60;;;;;;;0.88;100.00;96800.06;5093597;28;20497;-73
2022/04/11 06:36:46;;;;;;;8.30;6.20;;;;;;;0.88;100.00;96787.03;5076698;28;20555;-73
2022/04/11 06:39:13;;;;;;;6.90;5.73;;;;;;;0.92;100.00;96762.06;5076597;28;20465;-73
2022/04/11 06:41:46;;;;;;;6.20;5.70;;;;;;;1.10;100.00;96789.50;5093622;28;20937;-72
2022/04/11 06:44:12;;;;;;;5.37;4.93;;;;;;;1.21;100.00;96791.13;5093157;28;20435;-72
2022/04/11 06:46:48;;;;;;;5.67;5.17;;;;;;;1.39;100.00;96819.31;5093296;28;20481;-74
2022/04/11 06:49:15;;;;;;;7.67;5.50;;;;;;;1.19;100.00;96798.38;5076425;28;20494;-74
2022/04/11 06:51:42;;;;;;;9.87;5.20;;;;;;;1.29;100.00;96801.03;5093184;28;20909;-74
2022/04/11 06:54:09;;;;;;;5.70;4.73;;;;;;;1.28;100.00;96799.47;5093382;28;20433;-73
2022/04/11 06:56:35;;;;;;;5.20;4.70;;;;;;;1.58;100.00;96824.84;5093579;28;20516;-73
2022/04/11 06:59:02;;;;;;;11.33;5.87;;;;;;;1.67;100.00;96828.50;5076567;28;20948;-73
2022/04/11 07:01:29;;;;;;;7.27;5.20;;;;;;;1.47;100.00;96786.78;5076549;28;20530;-73
2022/04/11 07:03:57;;;;;;;5.80;4.83;;;;;;;1.96;100.00;96797.56;5093214;28;20440;-74
2022/04/11 07:06:23;;;;;;;8.60;4.73;;;;;;;2.23;100.00;96838.25;5093330;28;20459;-74
2022/04/11 07:08:50;;;;;;;7.33;5.57;;;;;;;2.18;100.00;96838.28;5076417;28;20564;-74
2022/04/11 07:11:17;;;;;;;6.30;5.00;;;;;;;2.07;100.00;96834.88;5093137;28;20456;-74
2022/04/11 07:13:44;;;;;;;9.83;5.17;;;;;;;1.88;100.00;96800.69;5093211;28;20452;-74
2022/04/11 07:16:11;;;;;;;7.93;5.63;;;;;;;2.21;100.00;96841.13;5076742;28;20457;-73
2022/04/11 07:18:38;;;;;;;5.70;5.10;;;;;;;2.28;100.00;96818.19;5076312;28;20449;-73
2022/04/11 07:21:05;;;;;;;11.80;5.80;;;;;;;2.25;100.00;96782.19;5092980;28;20459;-73
2022/04/11 07:23:31;;;;;;;9.20;4.80;;;;;;;2.68;100.00;96819.22;5092626;28;20486;-73
2022/04/11 07:25:58;;;;;;;7.10;5.13;;;;;;;2.72;100.00;96801.97;5094077;28;20475;-73
2022/04/11 07:28:25;;;;;;;9.97;5.50;;;;;;;2.81;100.00;96805.63;5092584;28;20438;-73
2022/04/11 07:30:52;;;;;;;9.47;6.00;;;;;;;2.97;100.00;96816.81;5092944;28;20497;-72
2022/04/11 07:33:19;;;;;;;15.63;5.37;;;;;;;2.91;100.00;96828.31;5092791;28;20532;-73
2022/04/11 07:35:45;;;;;;;12.60;6.20;;;;;;;3.10;100.00;96842.38;5075733;28;20446;-73
2022/04/11 07:38:12;;;;;;;12.63;5.97;;;;;;;2.70;100.00;96821.56;5093924;28;20467;-73
2022/04/11 07:40:46;;;;;;;6.73;5.80;;;;;;;2.91;100.00;96810.03;5093023;28;20422;-73
2022/04/11 07:43:13;;;;;;;7.63;5.43;;;;;;;3.25;100.00;96831.13;5093801;28;20468;-73
2022/04/11 07:45:39;;;;;;;7.20;4.80;;;;;;;3.02;100.00;96808.19;5092423;28;20455;-73
2022/04/11 07:48:06;;;;;;;6.30;5.80;;;;;;;2.91;100.00;96829.09;5075704;28;20471;-73
2022/04/11 07:50:33;;;;;;;14.50;6.23;;;;;;;2.81;100.00;96818.69;5093432;28;20462;-73
2022/04/11 07:52:59;;;;;;;9.47;6.20;;;;;;;3.08;100.00;96838.47;5093432;28;20433;-74
2022/04/11 07:55:26;;;;;;;7.90;5.33;;;;;;;3.05;100.00;96810.25;5091961;28;20444;-74
2022/04/11 07:57:53;;;;;;;14.93;4.87;;;;;;;3.37;100.00;96834.22;5093342;28;20488;-73
2022/04/11 08:00:22;;;;;;;7.47;5.30;;;;;;;3.50;100.00;96838.88;5091867;28;20532;-73
2022/04/11 08:02:53;;;;;;;9.90;7.93;;;;;;;3.90;100.00;96825.88;5091777;28;20456;-74
2022/04/11 08:05:20;;;;;;;9.23;5.80;;;;;;;3.58;100.00;96808.75;5091874;28;20433;-74
2022/04/11 08:07:48;;;;;;;5.30;4.90;;;;;;;3.80;100.00;96817.00;5074969;28;20464;-74
2022/04/11 08:10:16;;;;;;;15.20;5.80;;;;;;;3.78;100.00;96792.97;5074915;28;20536;-73
2022/04/11 08:12:53;;;;;;;6.70;5.33;;;;;;;4.65;100.00;96826.34;5091644;28;20503;-73
2022/04/11 08:15:22;;;;;;;7.67;5.73;;;;;;;4.46;100.00;96821.03;5092090;28;20444;-73
2022/04/11 08:17:49;;;;;;;5.90;4.37;;;;;;;4.41;100.00;96819.22;5091596;28;20976;-73
2022/04/11 08:20:16;;;;;;;4.97;4.27;;;;;;;4.68;100.00;96803.03;5091416;28;20937;-73
2022/04/11 08:22:45;;;;;;;4.47;4.00;;;;;;;4.49;100.00;96803.97;5091534;28;20785;-73
2022/04/11 08:25:12;;;;;;;11.57;4.63;;;;;;;5.03;100.00;96814.19;5074747;28;20535;-73
2022/04/11 08:27:39;;;;;;;4.10;3.70;;;;;;;4.80;100.00;96817.56;5091748;28;20461;-73
2022/04/11 08:30:06;;;;;;;6.73;4.53;;;;;;;5.41;100.00;96819.56;5074773;28;20444;-73
2022/04/11 08:32:47;;;;;;;4.00;3.60;;;;;;;5.66;100.00;96810.59;5091378;28;20503;-74
2022/04/11 08:35:15;;;;;;;4.80;4.30;;;;;;;5.64;100.00;96795.16;5091883;28;20920;-75
2022/04/11 08:37:42;;;;;;;4.27;3.90;;;;;;;5.50;100.00;96797.69;5074369;28;21275;-74
2022/04/11 08:40:18;;;;;;;5.50;4.33;;;;;;;5.59;100.00;96795.19;5074563;28;20509;-74
2022/04/11 08:42:48;;;;;;;7.30;4.40;;;;;;;5.89;100.00;96801.91;5092408;28;20428;-74
2022/04/11 08:45:18;;;;;;;8.00;4.17;;;;;;;5.96;100.00;96791.06;5092279;28;20886;-74
2022/04/11 08:47:47;;;;;;;8.13;4.30;;;;;;;6.48;100.00;96809.16;5073922;28;20523;-75
2022/04/11 08:50:14;;;;;;;3.77;3.47;;;;;;;5.96;100.00;96798.94;5092407;28;20874;-74
2022/04/11 08:52:41;;;;;;;7.77;4.93;;;;;;;6.13;100.00;96807.09;5090981;28;20474;-74
2022/04/11 08:55:10;;;;;;;5.83;3.53;;;;;;;6.09;100.00;96785.09;5090974;28;20474;-75
2022/04/11 08:57:37;;;;;;;4.77;3.63;;;;;;;6.29;100.00;96808.44;5090773;28;20465;-74
2022/04/11 09:00:31;;;;;;;4.03;3.67;;;;;;;6.64;100.00;96772.13;5073979;28;20896;-74
2022/04/11 09:02:58;;;;;;;3.37;3.07;;;;;;;6.25;100.00;96767.25;5078320;28;20454;-74
2022/04/11 09:05:27;;;;;;;4.53;3.60;;;;;;;6.74;100.00;96801.66;5092311;28;20840;-74
2022/04/11 09:07:56;;;;;;;3.20;2.90;;;;;;;6.97;100.00;96801.78;5082201;28;20462;-74
2022/04/11 09:10:25;;;;;;;3.80;3.40;;;;;;;7.04;99.99;96807.41;5086800;28;20525;-74
2022/04/11 09:12:56;;;;;;;4.97;3.10;;;;;;;7.28;100.00;96801.97;5091524;28;20450;-74
2022/04/11 09:15:24;;;;;;;5.13;4.30;;;;;;;6.55;98.60;96763.38;5094782;28;20464;-74
2022/04/11 09:17:53;;;;;;;4.07;3.67;;;;;;;7.26;99.96;96796.25;5100984;28;20473;-74
2022/04/11 09:20:24;;;;;;;6.07;4.03;;;;;;;7.54;93.65;96803.03;5090567;28;20464;-74
2022/04/11 09:22:51;;;;;;;4.07;2.67;;;;;;;7.51;93.02;96766.03;5092258;28;20501;-74
2022/04/11 09:25:20;;;;;;;3.40;3.10;;;;;;;7.55;94.19;96794.06;5073581;28;20434;-74
2022/04/11 09:27:48;;;;;;;5.80;2.70;;;;;;;7.52;88.77;96789.41;5091946;28;20449;-75
2022/04/11 09:30:27;;;;;;;5.20;3.20;;;;;;;7.63;96.11;96761.81;5090582;28;20537;-76
2022/04/11 09:32:57;;;;;;;5.87;3.30;;;;;;;7.79;88.59;96790.44;5090478;28;20478;-74
2022/04/11 09:35:26;;;;;;;6.20;2.77;;;;;;;7.37;85.05;96772.06;5090695;28;20449;-75
2022/04/11 09:38:18;;;;;;;5.67;3.13;;;;;;;7.66;85.82;96784.91;5074094;28;21084;-75
2022/04/11 09:40:45;;;;;;;3.60;3.27;;;;;;;7.30;84.10;96778.78;5091565;28;20795;-75
2022/04/11 09:43:13;;;;;;;2.93;2.53;;;;;;;7.55;85.37;96773.03;5090179;28;20541;-75
2022/04/11 09:45:49;;;;;;;5.30;3.17;;;;;;;7.54;81.30;96779.34;5073969;28;20437;-76
2022/04/11 09:48:17;;;;;;;3.03;2.33;;;;;;;7.23;80.11;96737.13;5077463;28;20848;-75
2022/04/11 09:50:44;;;;;;;2.80;2.43;;;;;;;7.63;80.71;96745.25;5090253;28;20444;-75
2022/04/11 09:53:12;;;;;;;3.10;2.20;;;;;;;7.42;76.55;96773.81;5090282;28;20662;-74
2022/04/11 09:55:40;;;;;;;4.53;3.00;;;;;;;7.54;76.75;96749.63;5090314;28;20433;-74
2022/04/11 09:58:07;;;;;;;2.90;2.13;;;;;;;7.82;76.68;96763.50;5091380;28;20445;-74
2022/04/11 10:00:40;;;;;;;3.50;2.40;;;;;;;8.33;75.74;96762.34;5091570;28;20425;-74
2022/04/11 10:03:08;;;;;;;3.73;3.03;;;;;;;8.31;72.65;96757.38;5070423;28;20837;-74
2022/04/11 10:05:36;;;;;;;2.93;1.97;;;;;;;8.10;68.51;96756.28;5086997;28;20491;-74
2022/04/11 10:08:04;;;;;;;2.33;2.13;;;;;;;8.39;69.45;96767.19;5090304;28;20449;-74
2022/04/11 10:10:34;;;;;;;1.80;1.70;;;;;;;8.10;67.67;96735.22;5090253;28;20475;-74
2022/04/11 10:13:03;;;;;;;3.90;2.13;;;;;;;8.05;68.21;96745.88;5089797;28;20530;-74
2022/04/11 10:15:30;;;;;;;2.97;2.17;;;;;;;7.87;67.41;96723.91;5091695;28;20815;-74
2022/04/11 10:17:57;;;;;;;2.93;2.57;;;;;;;7.95;64.76;96758.19;5089731;28;20465;-74
2022/04/11 10:20:31;;;;;;;3.83;2.43;;;;;;;8.09;64.45;96763.41;5072713;28;20456;-74
2022/04/11 10:23:13;;;;;;;2.73;2.43;;;;;;;7.68;63.92;96753.78;5069615;28;20813;-74
2022/04/11 10:25:48;;;;;;;6.77;2.17;;;;;;;8.00;64.91;96752.03;5069513;28;20935;-74
2022/04/11 10:28:19;;;;;;;3.57;2.30;;;;;;;8.32;66.47;96745.75;5084680;28;20472;-74
2022/04/11 10:31:11;;;;;;;2.57;2.20;;;;;;;8.26;66.25;96702.16;5089539;28;20437;-75
2022/04/11 10:33:44;;;;;;;2.60;2.30;;;;;;;8.79;63.99;96746.94;5072838;28;20540;-74
2022/04/11 10:36:29;;;;;;;3.90;2.00;;;;;;;8.44;64.08;96737.34;5089601;28;21045;-74
2022/04/11 10:39:14;;;;;;;2.10;1.90;;;;;;;8.60;64.08;96749.03;5073296;28;20469;-74
2022/04/11 10:41:56;;;;;;;5.23;2.50;;;;;;;9.02;63.86;96744.25;5091494;28;20482;-74
2022/04/11 10:44:29;;;;;;;2.10;1.90;;;;;;;8.78;62.97;96705.84;5073567;28;20491;-74
2022/04/11 10:47:17;;;;;;;2.70;2.17;;;;;;;9.14;62.49;96732.03;5089881;28;20457;-75
2022/04/11 10:49:50;;;;;;;3.73;2.53;;;;;;;9.26;61.06;96733.31;5089979;28;20422;-75
2022/04/11 10:52:41;;;;;;;3.87;2.13;;;;;;;9.47;57.52;96727.13;5073268;28;20461;-75
2022/04/11 10:55:09;;;;;;;2.40;2.03;;;;;;;9.53;58.42;96709.28;5090298;28;20453;-75
2022/04/11 10:57:41;;;;;;;3.00;2.40;;;;;;;9.80;60.00;96726.69;5073338;28;20457;-74
2022/04/11 11:00:15;;;;;;;2.07;1.73;;;;;;;9.32;59.05;96717.00;5094986;28;20448;-75
2022/04/11 11:02:48;;;;;;;2.53;2.27;;;;;;;9.54;60.35;96713.47;5093936;28;20436;-74
2022/04/11 11:05:38;;;;;;;2.57;2.37;;;;;;;9.84;58.82;96713.63;5093533;28;20532;-74
2022/04/11 11:08:11;;;;;;;1.53;1.40;;;;;;;9.85;59.99;96710.69;5076692;28;20515;-75
2022/04/11 11:16:55;;;;;;;1.97;1.83;;;;;;;10.58;55.05;96711.53;5420182;23;20559;-77
2022/04/11 11:19:21;;;;;;;2.63;1.90;;;;;;;9.84;54.11;96660.81;4880536;29;20444;-77
2022/04/11 11:21:48;;;;;;;4.33;2.10;;;;;;;10.30;54.50;96691.88;4866453;29;20443;-76
2022/04/11 11:24:16;;;;;;;2.07;1.87;;;;;;;10.31;53.02;96688.91;4879911;29;20449;-76
2022/04/11 11:26:54;;;;;;;2.63;2.03;;;;;;;10.45;52.95;96682.66;4857386;29;20533;-76
2022/04/11 11:29:26;;;;;;;1.80;1.60;;;;;;;10.29;51.92;96674.47;4860497;29;20854;-74
2022/04/11 11:31:58;;;;;;;4.43;1.70;;;;;;;10.70;54.96;96673.84;4885519;29;20512;-77
2022/04/11 11:34:27;;;;;;;2.40;1.70;;;;;;;10.86;53.86;96666.91;4893492;29;20436;-75
2022/04/11 11:37:02;;;;;;;4.70;1.50;;;;;;;10.65;52.56;96672.13;4860937;29;20537;-75
2022/04/11 11:39:37;;;;;;;2.13;1.33;;;;;;;10.99;53.29;96662.50;4870639;29;20417;-75
2022/04/11 11:42:11;;;;;;;3.90;2.17;;;;;;;10.94;51.47;96665.31;4882457;29;20424;-75
2022/04/11 11:44:47;;;;;;;3.17;1.90;;;;;;;10.71;50.49;96670.13;4873294;29;20431;-74